sensor_id;sensor_type;location;lat;lon;timestamp;temperature;humidity
52675;DHT22;38569;52.722;6.440;2024-01-07T00:01:56;0.50;99.90
52675;DHT22;38569;52.722;6.440;2024-01-07T00:04:22;0.50;99.90
52675;DHT22;38569;52.722;6.440;2024-01-07T00:06:48;0.50;99.90
52675;DHT22;38569;52.722;6.440;2024-01-07T00:09:14;0.40;99.90
52675;DHT22;38569;52.722;6.440;2024-01-07T00:11:40;0.50;99.90
52675;DHT22;38569;52.722;6.440;2024-01-07T00:14:06;0.40;99.90
52675;DHT22;38569;52.722;6.440;2024-01-07T00:16:31;0.40;99.90
52675;DHT22;38569;52.722;6.440;2024-01-07T00:18:57;0.40;99.90
52675;DHT22;38569;52.722;6.440;2024-01-07T00:21:23;0.40;99.90
52675;DHT22;38569;52.722;6.440;2024-01-07T00:23:49;0.40;99.90
52675;DHT22;38569;52.722;6.440;2024-01-07T00:26:15;0.40;99.90
52675;DHT22;38569;52.722;6.440;2024-01-07T00:28:41;0.40;99.90
52675;DHT22;38569;52.722;6.440;2024-01-07T00:31:06;0.40;99.90
52675;DHT22;38569;52.722;6.440;2024-01-07T00:33:35;0.50;99.90
52675;DHT22;38569;52.722;6.440;2024-01-07T00:36:01;0.40;99.90
52675;DHT22;38569;52.722;6.440;2024-01-07T00:38:27;0.40;99.90
52675;DHT22;38569;52.722;6.440;2024-01-07T00:40:53;0.50;99.90
52675;DHT22;38569;52.722;6.440;2024-01-07T00:43:19;0.50;99.90
52675;DHT22;38569;52.722;6.440;2024-01-07T00:45:44;0.40;99.90
52675;DHT22;38569;52.722;6.440;2024-01-07T00:48:10;0.40;99.90
52675;DHT22;38569;52.722;6.440;2024-01-07T00:50:36;0.50;99.90
52675;DHT22;38569;52.722;6.440;2024-01-07T00:53:02;0.40;99.90
52675;DHT22;38569;52.722;6.440;2024-01-07T00:55:27;0.50;99.90
52675;DHT22;38569;52.722;6.440;2024-01-07T00:57:53;0.50;99.90
52675;DHT22;38569;52.722;6.440;2024-01-07T01:00:19;0.50;99.90
52675;DHT22;38569;52.722;6.440;2024-01-07T01:02:45;0.40;99.90
52675;DHT22;38569;52.722;6.440;2024-01-07T01:05:11;0.40;99.90
52675;DHT22;38569;52.722;6.440;2024-01-07T01:07:37;0.40;99.90
52675;DHT22;38569;52.722;6.440;2024-01-07T01:10:03;0.50;99.90
52675;DHT22;38569;52.722;6.440;2024-01-07T01:12:28;0.50;99.90
52675;DHT22;38569;52.722;6.440;2024-01-07T01:14:54;0.40;99.90
52675;DHT22;38569;52.722;6.440;2024-01-07T01:17:20;0.40;99.90
52675;DHT22;38569;52.722;6.440;2024-01-07T01:19:46;0.40;99.90
52675;DHT22;38569;52.722;6.440;2024-01-07T01:22:11;0.50;99.90
52675;DHT22;38569;52.722;6.440;2024-01-07T01:24:38;0.40;99.90
52675;DHT22;38569;52.722;6.440;2024-01-07T01:27:04;0.40;99.90
52675;DHT22;38569;52.722;6.440;2024-01-07T01:29:29;0.40;99.90
52675;DHT22;38569;52.722;6.440;2024-01-07T01:31:56;0.40;99.90
52675;DHT22;38569;52.722;6.440;2024-01-07T01:34:22;0.40;99.90
52675;DHT22;38569;52.722;6.440;2024-01-07T01:36:48;0.40;99.90
52675;DHT22;38569;52.722;6.440;2024-01-07T01:39:13;0.40;99.90
52675;DHT22;38569;52.722;6.440;2024-01-07T01:41:40;0.40;99.90
52675;DHT22;38569;52.722;6.440;2024-01-07T01:44:05;0.40;99.90
52675;DHT22;38569;52.722;6.440;2024-01-07T01:46:31;0.40;99.90
52675;DHT22;38569;52.722;6.440;2024-01-07T01:48:58;0.40;99.90
52675;DHT22;38569;52.722;6.440;2024-01-07T01:51:24;0.40;99.90
52675;DHT22;38569;52.722;6.440;2024-01-07T01:53:51;0.40;99.90
52675;DHT22;38569;52.722;6.440;2024-01-07T01:56:17;0.40;99.90
52675;DHT22;38569;52.722;6.440;2024-01-07T01:58:44;0.50;99.90
52675;DHT22;38569;52.722;6.440;2024-01-07T02:01:10;0.40;99.90
52675;DHT22;38569;52.722;6.440;2024-01-07T02:03:36;0.50;99.90
52675;DHT22;38569;52.722;6.440;2024-01-07T02:06:02;0.50;99.90
52675;DHT22;38569;52.722;6.440;2024-01-07T02:08:28;0.50;99.90
52675;DHT22;38569;52.722;6.440;2024-01-07T02:10:55;0.50;99.90
52675;DHT22;38569;52.722;6.440;2024-01-07T02:13:21;0.50;99.90
52675;DHT22;38569;52.722;6.440;2024-01-07T02:15:46;0.50;99.90
52675;DHT22;38569;52.722;6.440;2024-01-07T02:18:12;0.50;99.90
52675;DHT22;38569;52.722;6.440;2024-01-07T02:20:38;0.50;99.90
52675;DHT22;38569;52.722;6.440;2024-01-07T02:23:04;0.40;99.90
52675;DHT22;38569;52.722;6.440;2024-01-07T02:25:35;0.40;99.90
52675;DHT22;38569;52.722;6.440;2024-01-07T02:28:01;0.40;99.90
52675;DHT22;38569;52.722;6.440;2024-01-07T02:30:27;0.40;99.90
52675;DHT22;38569;52.722;6.440;2024-01-07T02:32:52;0.40;99.90
52675;DHT22;38569;52.722;6.440;2024-01-07T02:35:18;0.50;99.90
52675;DHT22;38569;52.722;6.440;2024-01-07T02:37:44;0.40;99.90
52675;DHT22;38569;52.722;6.440;2024-01-07T02:40:10;0.40;99.90
52675;DHT22;38569;52.722;6.440;2024-01-07T02:42:36;0.40;99.90
52675;DHT22;38569;52.722;6.440;2024-01-07T02:45:02;0.40;99.90
52675;DHT22;38569;52.722;6.440;2024-01-07T02:47:27;0.40;99.90
52675;DHT22;38569;52.722;6.440;2024-01-07T02:49:53;0.40;99.90
52675;DHT22;38569;52.722;6.440;2024-01-07T02:52:19;0.50;99.90
52675;DHT22;38569;52.722;6.440;2024-01-07T02:54:44;0.40;99.90
52675;DHT22;38569;52.722;6.440;2024-01-07T02:57:10;0.40;99.90
52675;DHT22;38569;52.722;6.440;2024-01-07T02:59:35;0.40;99.90
52675;DHT22;38569;52.722;6.440;2024-01-07T03:02:01;0.40;99.90
52675;DHT22;38569;52.722;6.440;2024-01-07T03:04:27;0.30;99.90
52675;DHT22;38569;52.722;6.440;2024-01-07T03:06:53;0.40;99.90
52675;DHT22;38569;52.722;6.440;2024-01-07T03:09:18;0.50;99.90
52675;DHT22;38569;52.722;6.440;2024-01-07T03:11:44;0.40;99.90
52675;DHT22;38569;52.722;6.440;2024-01-07T03:14:10;0.40;99.90
52675;DHT22;38569;52.722;6.440;2024-01-07T03:16:35;0.40;99.90
52675;DHT22;38569;52.722;6.440;2024-01-07T03:19:01;0.40;99.90
52675;DHT22;38569;52.722;6.440;2024-01-07T03:21:28;0.40;99.90
52675;DHT22;38569;52.722;6.440;2024-01-07T03:23:54;0.40;99.90
52675;DHT22;38569;52.722;6.440;2024-01-07T03:26:20;0.40;99.90
52675;DHT22;38569;52.722;6.440;2024-01-07T03:28:46;0.50;99.90
52675;DHT22;38569;52.722;6.440;2024-01-07T03:31:13;0.50;99.90
52675;DHT22;38569;52.722;6.440;2024-01-07T03:33:40;0.40;99.90
52675;DHT22;38569;52.722;6.440;2024-01-07T03:36:10;0.40;99.90
52675;DHT22;38569;52.722;6.440;2024-01-07T03:38:37;0.40;99.90
52675;DHT22;38569;52.722;6.440;2024-01-07T03:41:03;0.40;99.90
52675;DHT22;38569;52.722;6.440;2024-01-07T03:43:29;0.30;99.90
52675;DHT22;38569;52.722;6.440;2024-01-07T03:45:55;0.30;99.90
52675;DHT22;38569;52.722;6.440;2024-01-07T03:48:21;0.20;99.90
52675;DHT22;38569;52.722;6.440;2024-01-07T03:50:47;0.30;99.90
52675;DHT22;38569;52.722;6.440;2024-01-07T03:53:13;0.20;99.90
52675;DHT22;38569;52.722;6.440;2024-01-07T03:55:39;0.20;99.90
52675;DHT22;38569;52.722;6.440;2024-01-07T03:58:05;0.10;99.90
52675;DHT22;38569;52.722;6.440;2024-01-07T04:00:31;0.20;99.90
52675;DHT22;38569;52.722;6.440;2024-01-07T04:02:57;0.20;99.90
52675;DHT22;38569;52.722;6.440;2024-01-07T04:05:23;0.20;99.90
52675;DHT22;38569;52.722;6.440;2024-01-07T04:07:49;0.20;99.90
52675;DHT22;38569;52.722;6.440;2024-01-07T04:10:18;0.20;99.90
52675;DHT22;38569;52.722;6.440;2024-01-07T04:12:44;0.20;99.90
52675;DHT22;38569;52.722;6.440;2024-01-07T04:15:11;0.20;99.90
52675;DHT22;38569;52.722;6.440;2024-01-07T04:17:37;0.20;99.90
52675;DHT22;38569;52.722;6.440;2024-01-07T04:20:03;0.20;99.90
52675;DHT22;38569;52.722;6.440;2024-01-07T04:22:29;0.20;99.90
52675;DHT22;38569;52.722;6.440;2024-01-07T04:24:55;0.30;99.90
52675;DHT22;38569;52.722;6.440;2024-01-07T04:27:20;0.30;99.90
52675;DHT22;38569;52.722;6.440;2024-01-07T04:29:46;0.30;99.90
52675;DHT22;38569;52.722;6.440;2024-01-07T04:32:12;0.30;99.90
52675;DHT22;38569;52.722;6.440;2024-01-07T04:34:38;0.20;99.90
52675;DHT22;38569;52.722;6.440;2024-01-07T04:37:03;0.20;99.90
52675;DHT22;38569;52.722;6.440;2024-01-07T04:39:29;0.20;99.90
52675;DHT22;38569;52.722;6.440;2024-01-07T04:41:55;0.20;99.90
52675;DHT22;38569;52.722;6.440;2024-01-07T04:44:20;0.20;99.90
52675;DHT22;38569;52.722;6.440;2024-01-07T04:46:47;0.20;99.90
52675;DHT22;38569;52.722;6.440;2024-01-07T04:49:14;0.10;99.90
52675;DHT22;38569;52.722;6.440;2024-01-07T04:51:39;0.20;99.90
52675;DHT22;38569;52.722;6.440;2024-01-07T04:54:05;0.10;99.90
52675;DHT22;38569;52.722;6.440;2024-01-07T04:56:34;0.10;99.90
52675;DHT22;38569;52.722;6.440;2024-01-07T04:58:59;0.00;99.90
52675;DHT22;38569;52.722;6.440;2024-01-07T05:01:25;0.00;99.90
52675;DHT22;38569;52.722;6.440;2024-01-07T05:03:51;0.00;99.90
52675;DHT22;38569;52.722;6.440;2024-01-07T05:06:17;0.00;99.90
52675;DHT22;38569;52.722;6.440;2024-01-07T05:08:43;0.00;99.90
52675;DHT22;38569;52.722;6.440;2024-01-07T05:11:08;-0.10;99.90
52675;DHT22;38569;52.722;6.440;2024-01-07T05:13:35;-0.10;99.90
52675;DHT22;38569;52.722;6.440;2024-01-07T05:16:01;0.00;99.90
52675;DHT22;38569;52.722;6.440;2024-01-07T05:18:26;0.00;99.90
52675;DHT22;38569;52.722;6.440;2024-01-07T05:20:52;0.00;99.90
52675;DHT22;38569;52.722;6.440;2024-01-07T05:23:18;0.00;99.90
52675;DHT22;38569;52.722;6.440;2024-01-07T05:25:44;0.00;99.90
52675;DHT22;38569;52.722;6.440;2024-01-07T05:28:11;0.00;99.90
52675;DHT22;38569;52.722;6.440;2024-01-07T05:30:38;0.00;99.90
52675;DHT22;38569;52.722;6.440;2024-01-07T05:33:04;-0.10;99.90
52675;DHT22;38569;52.722;6.440;2024-01-07T05:35:30;-0.10;99.90
52675;DHT22;38569;52.722;6.440;2024-01-07T05:37:56;-0.10;99.90
52675;DHT22;38569;52.722;6.440;2024-01-07T05:40:22;-0.10;99.90
52675;DHT22;38569;52.722;6.440;2024-01-07T05:42:48;-0.10;99.90
52675;DHT22;38569;52.722;6.440;2024-01-07T05:45:13;-0.10;99.90
52675;DHT22;38569;52.722;6.440;2024-01-07T05:47:39;-0.10;99.90
52675;DHT22;38569;52.722;6.440;2024-01-07T05:50:07;-0.10;99.90
52675;DHT22;38569;52.722;6.440;2024-01-07T05:52:32;-0.20;99.90
52675;DHT22;38569;52.722;6.440;2024-01-07T05:54:58;-0.10;99.90
52675;DHT22;38569;52.722;6.440;2024-01-07T05:57:24;-0.10;99.90
52675;DHT22;38569;52.722;6.440;2024-01-07T05:59:50;-0.20;99.90
52675;DHT22;38569;52.722;6.440;2024-01-07T06:02:17;-0.20;99.90
52675;DHT22;38569;52.722;6.440;2024-01-07T06:04:42;-0.10;99.90
52675;DHT22;38569;52.722;6.440;2024-01-07T06:07:08;0.00;99.90
52675;DHT22;38569;52.722;6.440;2024-01-07T06:09:34;-0.20;99.90
52675;DHT22;38569;52.722;6.440;2024-01-07T06:12:00;-0.10;99.90
52675;DHT22;38569;52.722;6.440;2024-01-07T06:14:25;-0.10;99.90
52675;DHT22;38569;52.722;6.440;2024-01-07T06:16:51;-0.10;99.90
52675;DHT22;38569;52.722;6.440;2024-01-07T06:19:18;-0.20;99.90
52675;DHT22;38569;52.722;6.440;2024-01-07T06:21:43;-0.10;99.90
52675;DHT22;38569;52.722;6.440;2024-01-07T06:24:09;-0.10;99.90
52675;DHT22;38569;52.722;6.440;2024-01-07T06:26:35;-0.20;99.90
52675;DHT22;38569;52.722;6.440;2024-01-07T06:29:01;-0.20;99.90
52675;DHT22;38569;52.722;6.440;2024-01-07T06:31:27;-0.20;99.90
52675;DHT22;38569;52.722;6.440;2024-01-07T06:33:53;-0.20;99.90
52675;DHT22;38569;52.722;6.440;2024-01-07T06:36:22;-0.30;99.90
52675;DHT22;38569;52.722;6.440;2024-01-07T06:38:47;-0.30;99.90
52675;DHT22;38569;52.722;6.440;2024-01-07T06:41:14;-0.30;99.90
52675;DHT22;38569;52.722;6.440;2024-01-07T06:43:40;-0.30;99.90
52675;DHT22;38569;52.722;6.440;2024-01-07T06:46:06;-0.30;99.90
52675;DHT22;38569;52.722;6.440;2024-01-07T06:48:31;-0.30;99.90
52675;DHT22;38569;52.722;6.440;2024-01-07T06:50:57;-0.20;99.90
52675;DHT22;38569;52.722;6.440;2024-01-07T06:53:23;-0.30;99.90
52675;DHT22;38569;52.722;6.440;2024-01-07T06:55:49;-0.30;99.90
52675;DHT22;38569;52.722;6.440;2024-01-07T06:58:15;-0.20;99.90
52675;DHT22;38569;52.722;6.440;2024-01-07T07:00:40;-0.20;99.90
52675;DHT22;38569;52.722;6.440;2024-01-07T07:03:06;-0.20;99.90
52675;DHT22;38569;52.722;6.440;2024-01-07T07:05:33;-0.20;99.90
52675;DHT22;38569;52.722;6.440;2024-01-07T07:07:58;-0.20;99.90
52675;DHT22;38569;52.722;6.440;2024-01-07T07:10:24;-0.10;99.90
52675;DHT22;38569;52.722;6.440;2024-01-07T07:12:50;-0.20;99.90
52675;DHT22;38569;52.722;6.440;2024-01-07T07:15:17;-0.20;99.90
52675;DHT22;38569;52.722;6.440;2024-01-07T07:17:43;-0.10;99.90
52675;DHT22;38569;52.722;6.440;2024-01-07T07:20:09;-0.10;99.90
52675;DHT22;38569;52.722;6.440;2024-01-07T07:22:35;-0.10;99.90
52675;DHT22;38569;52.722;6.440;2024-01-07T07:25:00;-0.10;99.90
52675;DHT22;38569;52.722;6.440;2024-01-07T07:27:26;-0.10;99.90
52675;DHT22;38569;52.722;6.440;2024-01-07T07:29:52;-0.10;99.90
52675;DHT22;38569;52.722;6.440;2024-01-07T07:32:17;-0.10;99.90
52675;DHT22;38569;52.722;6.440;2024-01-07T07:34:43;-0.10;99.90
52675;DHT22;38569;52.722;6.440;2024-01-07T07:37:09;-0.10;99.90
52675;DHT22;38569;52.722;6.440;2024-01-07T07:39:35;-0.10;99.90
52675;DHT22;38569;52.722;6.440;2024-01-07T07:42:01;-0.10;99.90
52675;DHT22;38569;52.722;6.440;2024-01-07T07:44:27;-0.10;99.90
52675;DHT22;38569;52.722;6.440;2024-01-07T07:46:52;-0.10;99.90
52675;DHT22;38569;52.722;6.440;2024-01-07T07:49:18;-0.10;99.90
52675;DHT22;38569;52.722;6.440;2024-01-07T07:51:44;0.00;99.90
52675;DHT22;38569;52.722;6.440;2024-01-07T07:54:10;0.00;99.90
52675;DHT22;38569;52.722;6.440;2024-01-07T07:56:35;0.00;99.90
52675;DHT22;38569;52.722;6.440;2024-01-07T07:59:02;0.00;99.90
52675;DHT22;38569;52.722;6.440;2024-01-07T08:01:28;0.00;99.90
52675;DHT22;38569;52.722;6.440;2024-01-07T08:03:55;0.10;99.90
52675;DHT22;38569;52.722;6.440;2024-01-07T08:06:21;0.00;99.90
52675;DHT22;38569;52.722;6.440;2024-01-07T08:08:47;0.10;99.90
52675;DHT22;38569;52.722;6.440;2024-01-07T08:11:13;0.00;99.90
52675;DHT22;38569;52.722;6.440;2024-01-07T08:13:38;0.00;99.90
52675;DHT22;38569;52.722;6.440;2024-01-07T08:16:05;0.00;99.90
52675;DHT22;38569;52.722;6.440;2024-01-07T08:18:31;-0.20;99.90
52675;DHT22;38569;52.722;6.440;2024-01-07T08:20:57;-0.20;99.90
52675;DHT22;38569;52.722;6.440;2024-01-07T08:23:24;-0.30;99.90
52675;DHT22;38569;52.722;6.440;2024-01-07T08:25:50;-0.30;99.90
52675;DHT22;38569;52.722;6.440;2024-01-07T08:28:17;-0.30;99.90
52675;DHT22;38569;52.722;6.440;2024-01-07T08:30:44;-0.30;99.90
52675;DHT22;38569;52.722;6.440;2024-01-07T08:33:10;-0.20;99.90
52675;DHT22;38569;52.722;6.440;2024-01-07T08:35:36;-0.10;99.90
52675;DHT22;38569;52.722;6.440;2024-01-07T08:38:01;-0.10;99.90
52675;DHT22;38569;52.722;6.440;2024-01-07T08:40:27;-0.10;99.90
52675;DHT22;38569;52.722;6.440;2024-01-07T08:42:55;-0.10;99.90
52675;DHT22;38569;52.722;6.440;2024-01-07T08:45:21;-0.20;99.90
52675;DHT22;38569;52.722;6.440;2024-01-07T08:47:47;-0.30;99.90
52675;DHT22;38569;52.722;6.440;2024-01-07T08:50:12;-0.30;99.90
52675;DHT22;38569;52.722;6.440;2024-01-07T08:52:38;-0.30;99.90
52675;DHT22;38569;52.722;6.440;2024-01-07T08:55:04;-0.40;99.90
52675;DHT22;38569;52.722;6.440;2024-01-07T08:57:34;-0.30;99.90
52675;DHT22;38569;52.722;6.440;2024-01-07T09:00:00;-0.40;99.90
52675;DHT22;38569;52.722;6.440;2024-01-07T09:02:26;-0.40;99.90
52675;DHT22;38569;52.722;6.440;2024-01-07T09:04:51;-0.40;99.90
52675;DHT22;38569;52.722;6.440;2024-01-07T09:07:17;-0.40;99.90
52675;DHT22;38569;52.722;6.440;2024-01-07T09:09:44;-0.40;99.90
52675;DHT22;38569;52.722;6.440;2024-01-07T09:12:10;-0.50;99.90
52675;DHT22;38569;52.722;6.440;2024-01-07T09:14:37;-0.50;99.90
52675;DHT22;38569;52.722;6.440;2024-01-07T09:17:03;-0.50;99.90
52675;DHT22;38569;52.722;6.440;2024-01-07T09:19:29;-0.50;99.90
52675;DHT22;38569;52.722;6.440;2024-01-07T09:21:55;-0.40;99.90
52675;DHT22;38569;52.722;6.440;2024-01-07T09:24:20;-0.40;99.90
52675;DHT22;38569;52.722;6.440;2024-01-07T09:26:46;-0.40;99.90
52675;DHT22;38569;52.722;6.440;2024-01-07T09:29:12;-0.40;99.90
52675;DHT22;38569;52.722;6.440;2024-01-07T09:31:39;-0.30;99.90
52675;DHT22;38569;52.722;6.440;2024-01-07T09:34:05;0.00;99.90
52675;DHT22;38569;52.722;6.440;2024-01-07T09:36:32;0.60;99.90
52675;DHT22;38569;52.722;6.440;2024-01-07T09:38:58;0.60;99.90
52675;DHT22;38569;52.722;6.440;2024-01-07T09:41:24;0.90;99.90
52675;DHT22;38569;52.722;6.440;2024-01-07T09:43:51;1.20;99.90
52675;DHT22;38569;52.722;6.440;2024-01-07T09:46:17;1.80;99.90
52675;DHT22;38569;52.722;6.440;2024-01-07T09:48:43;2.50;99.90
52675;DHT22;38569;52.722;6.440;2024-01-07T09:51:09;2.50;99.90
52675;DHT22;38569;52.722;6.440;2024-01-07T09:53:39;2.20;99.90
52675;DHT22;38569;52.722;6.440;2024-01-07T09:56:22;1.90;99.90
52675;DHT22;38569;52.722;6.440;2024-01-07T09:58:48;2.30;99.90
52675;DHT22;38569;52.722;6.440;2024-01-07T10:01:18;2.40;99.90
52675;DHT22;38569;52.722;6.440;2024-01-07T10:03:44;2.40;99.90
52675;DHT22;38569;52.722;6.440;2024-01-07T10:06:13;2.80;99.90
52675;DHT22;38569;52.722;6.440;2024-01-07T10:08:39;3.00;99.90
52675;DHT22;38569;52.722;6.440;2024-01-07T10:11:04;3.10;99.90
52675;DHT22;38569;52.722;6.440;2024-01-07T10:13:31;3.30;99.90
52675;DHT22;38569;52.722;6.440;2024-01-07T10:15:57;3.50;99.90
52675;DHT22;38569;52.722;6.440;2024-01-07T10:18:24;3.30;99.90
52675;DHT22;38569;52.722;6.440;2024-01-07T10:20:50;3.00;99.90
52675;DHT22;38569;52.722;6.440;2024-01-07T10:23:19;2.80;99.90
52675;DHT22;38569;52.722;6.440;2024-01-07T10:25:45;2.90;99.90
52675;DHT22;38569;52.722;6.440;2024-01-07T10:28:11;3.40;99.90
52675;DHT22;38569;52.722;6.440;2024-01-07T10:30:40;2.60;99.90
52675;DHT22;38569;52.722;6.440;2024-01-07T10:33:07;2.20;99.90
52675;DHT22;38569;52.722;6.440;2024-01-07T10:35:35;2.00;99.90
52675;DHT22;38569;52.722;6.440;2024-01-07T10:38:01;1.60;99.90
52675;DHT22;38569;52.722;6.440;2024-01-07T10:40:29;1.50;99.90
52675;DHT22;38569;52.722;6.440;2024-01-07T10:42:56;1.50;99.90
52675;DHT22;38569;52.722;6.440;2024-01-07T10:45:23;1.50;99.90
52675;DHT22;38569;52.722;6.440;2024-01-07T10:47:50;1.70;99.90
52675;DHT22;38569;52.722;6.440;2024-01-07T10:50:19;1.70;99.90
52675;DHT22;38569;52.722;6.440;2024-01-07T10:52:57;1.50;99.90
52675;DHT22;38569;52.722;6.440;2024-01-07T10:55:25;1.40;99.90
52675;DHT22;38569;52.722;6.440;2024-01-07T10:57:53;1.30;99.90
52675;DHT22;38569;52.722;6.440;2024-01-07T11:00:21;1.20;99.90
52675;DHT22;38569;52.722;6.440;2024-01-07T11:06:01;1.20;99.90
52675;DHT22;38569;52.722;6.440;2024-01-07T11:08:41;1.20;99.90
52675;DHT22;38569;52.722;6.440;2024-01-07T11:11:22;1.10;99.90
52675;DHT22;38569;52.722;6.440;2024-01-07T11:13:49;1.10;99.90
52675;DHT22;38569;52.722;6.440;2024-01-07T11:16:41;1.10;99.90
52675;DHT22;38569;52.722;6.440;2024-01-07T11:19:07;1.10;99.90
52675;DHT22;38569;52.722;6.440;2024-01-07T11:21:33;1.10;99.90
52675;DHT22;38569;52.722;6.440;2024-01-07T11:23:59;1.00;99.90
52675;DHT22;38569;52.722;6.440;2024-01-07T11:26:28;1.00;99.90
52675;DHT22;38569;52.722;6.440;2024-01-07T11:28:56;1.00;99.90
52675;DHT22;38569;52.722;6.440;2024-01-07T11:31:49;1.00;99.90
52675;DHT22;38569;52.722;6.440;2024-01-07T11:34:38;1.00;99.90
52675;DHT22;38569;52.722;6.440;2024-01-07T11:37:08;1.10;99.90
52675;DHT22;38569;52.722;6.440;2024-01-07T11:39:35;1.10;99.90
52675;DHT22;38569;52.722;6.440;2024-01-07T11:42:03;1.10;99.90
52675;DHT22;38569;52.722;6.440;2024-01-07T11:44:29;1.10;99.90
52675;DHT22;38569;52.722;6.440;2024-01-07T11:46:56;1.00;99.90
52675;DHT22;38569;52.722;6.440;2024-01-07T11:49:21;1.10;99.90
52675;DHT22;38569;52.722;6.440;2024-01-07T11:51:47;1.10;99.90
52675;DHT22;38569;52.722;6.440;2024-01-07T11:54:13;1.20;99.90
52675;DHT22;38569;52.722;6.440;2024-01-07T11:56:40;1.20;99.90
52675;DHT22;38569;52.722;6.440;2024-01-07T11:59:05;1.20;99.90
52675;DHT22;38569;52.722;6.440;2024-01-07T12:01:32;1.20;99.90
52675;DHT22;38569;52.722;6.440;2024-01-07T12:03:58;1.10;99.90
52675;DHT22;38569;52.722;6.440;2024-01-07T12:06:24;1.00;99.90
52675;DHT22;38569;52.722;6.440;2024-01-07T12:08:50;1.00;99.90
52675;DHT22;38569;52.722;6.440;2024-01-07T12:11:17;1.00;99.90
52675;DHT22;38569;52.722;6.440;2024-01-07T12:13:44;1.10;99.90
52675;DHT22;38569;52.722;6.440;2024-01-07T12:16:10;1.30;99.90
52675;DHT22;38569;52.722;6.440;2024-01-07T12:18:37;1.40;99.90
52675;DHT22;38569;52.722;6.440;2024-01-07T12:21:03;1.40;99.90
52675;DHT22;38569;52.722;6.440;2024-01-07T12:23:34;1.40;99.90
52675;DHT22;38569;52.722;6.440;2024-01-07T12:26:08;1.50;99.90
52675;DHT22;38569;52.722;6.440;2024-01-07T12:28:34;1.60;99.90
52675;DHT22;38569;52.722;6.440;2024-01-07T12:31:00;1.60;99.90
52675;DHT22;38569;52.722;6.440;2024-01-07T12:33:27;1.60;99.90
52675;DHT22;38569;52.722;6.440;2024-01-07T12:35:54;1.60;99.90
52675;DHT22;38569;52.722;6.440;2024-01-07T12:38:24;1.70;99.90
52675;DHT22;38569;52.722;6.440;2024-01-07T12:40:51;1.70;99.90
52675;DHT22;38569;52.722;6.440;2024-01-07T12:43:17;1.60;99.90
52675;DHT22;38569;52.722;6.440;2024-01-07T12:45:43;1.60;99.90
52675;DHT22;38569;52.722;6.440;2024-01-07T12:48:09;1.80;99.90
52675;DHT22;38569;52.722;6.440;2024-01-07T12:50:35;1.90;99.90
52675;DHT22;38569;52.722;6.440;2024-01-07T12:53:01;1.90;99.90
52675;DHT22;38569;52.722;6.440;2024-01-07T12:55:27;1.90;99.90
52675;DHT22;38569;52.722;6.440;2024-01-07T12:57:53;1.90;99.90
52675;DHT22;38569;52.722;6.440;2024-01-07T13:00:19;1.70;99.90
52675;DHT22;38569;52.722;6.440;2024-01-07T13:02:45;1.50;99.90
52675;DHT22;38569;52.722;6.440;2024-01-07T13:05:11;1.40;99.90
52675;DHT22;38569;52.722;6.440;2024-01-07T13:07:38;1.30;99.90
52675;DHT22;38569;52.722;6.440;2024-01-07T13:10:04;1.40;99.90
52675;DHT22;38569;52.722;6.440;2024-01-07T13:12:30;1.40;99.90
52675;DHT22;38569;52.722;6.440;2024-01-07T13:14:56;1.40;99.90
52675;DHT22;38569;52.722;6.440;2024-01-07T13:17:21;1.50;99.90
52675;DHT22;38569;52.722;6.440;2024-01-07T13:19:47;1.50;99.90
52675;DHT22;38569;52.722;6.440;2024-01-07T13:22:13;1.60;99.90
52675;DHT22;38569;52.722;6.440;2024-01-07T13:24:40;1.60;99.90
52675;DHT22;38569;52.722;6.440;2024-01-07T13:27:06;1.70;99.90
52675;DHT22;38569;52.722;6.440;2024-01-07T13:29:33;1.60;99.90
52675;DHT22;38569;52.722;6.440;2024-01-07T13:32:00;1.40;99.90
52675;DHT22;38569;52.722;6.440;2024-01-07T13:34:26;1.30;99.90
52675;DHT22;38569;52.722;6.440;2024-01-07T13:36:52;1.20;99.90
52675;DHT22;38569;52.722;6.440;2024-01-07T13:39:18;0.90;99.90
52675;DHT22;38569;52.722;6.440;2024-01-07T13:41:46;0.80;99.90
52675;DHT22;38569;52.722;6.440;2024-01-07T13:44:12;0.80;99.90
52675;DHT22;38569;52.722;6.440;2024-01-07T13:46:46;0.80;99.90
52675;DHT22;38569;52.722;6.440;2024-01-07T13:49:13;0.90;99.90
52675;DHT22;38569;52.722;6.440;2024-01-07T13:51:42;1.00;99.90
52675;DHT22;38569;52.722;6.440;2024-01-07T13:54:08;1.00;99.90
52675;DHT22;38569;52.722;6.440;2024-01-07T13:56:36;1.20;99.90
52675;DHT22;38569;52.722;6.440;2024-01-07T13:59:03;1.20;99.90
52675;DHT22;38569;52.722;6.440;2024-01-07T14:01:29;1.10;99.90
52675;DHT22;38569;52.722;6.440;2024-01-07T14:03:55;1.10;99.90
52675;DHT22;38569;52.722;6.440;2024-01-07T14:06:21;1.10;99.90
52675;DHT22;38569;52.722;6.440;2024-01-07T14:08:47;1.10;99.90
52675;DHT22;38569;52.722;6.440;2024-01-07T14:11:13;1.00;99.90
52675;DHT22;38569;52.722;6.440;2024-01-07T14:13:38;1.20;99.90
52675;DHT22;38569;52.722;6.440;2024-01-07T14:16:05;1.10;99.90
52675;DHT22;38569;52.722;6.440;2024-01-07T14:18:32;1.00;99.90
52675;DHT22;38569;52.722;6.440;2024-01-07T14:20:57;1.00;99.90
52675;DHT22;38569;52.722;6.440;2024-01-07T14:23:23;1.00;99.90
52675;DHT22;38569;52.722;6.440;2024-01-07T14:25:49;0.90;99.90
52675;DHT22;38569;52.722;6.440;2024-01-07T14:28:15;0.80;99.90
52675;DHT22;38569;52.722;6.440;2024-01-07T14:30:40;0.70;99.90
52675;DHT22;38569;52.722;6.440;2024-01-07T14:33:06;0.70;99.90
52675;DHT22;38569;52.722;6.440;2024-01-07T14:35:32;0.70;99.90
52675;DHT22;38569;52.722;6.440;2024-01-07T14:37:59;0.60;99.90
52675;DHT22;38569;52.722;6.440;2024-01-07T14:40:26;0.60;99.90
52675;DHT22;38569;52.722;6.440;2024-01-07T14:42:52;0.60;99.90
52675;DHT22;38569;52.722;6.440;2024-01-07T14:45:26;0.50;99.90
52675;DHT22;38569;52.722;6.440;2024-01-07T14:47:52;0.50;99.90
52675;DHT22;38569;52.722;6.440;2024-01-07T14:50:18;0.40;99.90
52675;DHT22;38569;52.722;6.440;2024-01-07T14:52:44;0.40;99.90
52675;DHT22;38569;52.722;6.440;2024-01-07T14:55:10;0.30;99.90
52675;DHT22;38569;52.722;6.440;2024-01-07T14:57:36;0.20;99.90
52675;DHT22;38569;52.722;6.440;2024-01-07T15:00:02;0.30;99.90
52675;DHT22;38569;52.722;6.440;2024-01-07T15:02:30;0.30;99.90
52675;DHT22;38569;52.722;6.440;2024-01-07T15:04:56;0.30;99.90
52675;DHT22;38569;52.722;6.440;2024-01-07T15:07:23;0.20;99.90
52675;DHT22;38569;52.722;6.440;2024-01-07T15:09:49;0.20;99.90
52675;DHT22;38569;52.722;6.440;2024-01-07T15:12:15;0.20;99.90
52675;DHT22;38569;52.722;6.440;2024-01-07T15:14:40;0.10;99.90
52675;DHT22;38569;52.722;6.440;2024-01-07T15:17:06;0.10;99.90
52675;DHT22;38569;52.722;6.440;2024-01-07T15:19:32;0.10;99.90
52675;DHT22;38569;52.722;6.440;2024-01-07T15:21:58;0.00;99.90
52675;DHT22;38569;52.722;6.440;2024-01-07T15:24:24;0.00;99.90
52675;DHT22;38569;52.722;6.440;2024-01-07T15:26:49;0.00;99.90
52675;DHT22;38569;52.722;6.440;2024-01-07T15:29:15;-0.10;99.90
52675;DHT22;38569;52.722;6.440;2024-01-07T15:31:41;-0.10;99.90
52675;DHT22;38569;52.722;6.440;2024-01-07T15:34:07;-0.20;99.90
52675;DHT22;38569;52.722;6.440;2024-01-07T15:36:33;-0.20;99.90
52675;DHT22;38569;52.722;6.440;2024-01-07T15:38:59;-0.20;99.90
52675;DHT22;38569;52.722;6.440;2024-01-07T15:41:25;-0.30;99.90